sensor_id;sensor_type;location;lat;lon;timestamp;temperature;humidity
10304;DHT22;5197;48.152;8.590;2023-04-09T00:00:23;5.90;15.80
10304;DHT22;5197;48.152;8.590;2023-04-09T00:02:49;5.80;15.80
10304;DHT22;5197;48.152;8.590;2023-04-09T00:05:16;5.80;15.70
10304;DHT22;5197;48.152;8.590;2023-04-09T00:07:43;5.80;15.80
10304;DHT22;5197;48.152;8.590;2023-04-09T00:10:10;5.70;15.90
10304;DHT22;5197;48.152;8.590;2023-04-09T00:12:37;5.70;16.10
10304;DHT22;5197;48.152;8.590;2023-04-09T00:15:04;5.70;16.10
10304;DHT22;5197;48.152;8.590;2023-04-09T00:17:31;5.60;16.10
10304;DHT22;5197;48.152;8.590;2023-04-09T00:19:58;5.60;16.30
10304;DHT22;5197;48.152;8.590;2023-04-09T00:22:25;5.60;16.40
10304;DHT22;5197;48.152;8.590;2023-04-09T00:24:52;5.50;16.40
10304;DHT22;5197;48.152;8.590;2023-04-09T00:27:19;5.50;16.40
10304;DHT22;5197;48.152;8.590;2023-04-09T00:29:46;5.40;16.40
10304;DHT22;5197;48.152;8.590;2023-04-09T00:32:13;5.40;17.50
10304;DHT22;5197;48.152;8.590;2023-04-09T00:34:40;5.40;16.50
10304;DHT22;5197;48.152;8.590;2023-04-09T00:37:07;5.30;16.40
10304;DHT22;5197;48.152;8.590;2023-04-09T00:39:34;5.30;16.20
10304;DHT22;5197;48.152;8.590;2023-04-09T00:42:01;5.20;16.20
10304;DHT22;5197;48.152;8.590;2023-04-09T00:44:28;5.10;17.30
10304;DHT22;5197;48.152;8.590;2023-04-09T00:46:57;5.00;16.10
10304;DHT22;5197;48.152;8.590;2023-04-09T00:49:24;4.80;16.10
10304;DHT22;5197;48.152;8.590;2023-04-09T00:51:52;4.80;16.30
10304;DHT22;5197;48.152;8.590;2023-04-09T00:54:19;4.60;16.40
10304;DHT22;5197;48.152;8.590;2023-04-09T00:56:46;4.70;16.60
10304;DHT22;5197;48.152;8.590;2023-04-09T00:59:13;4.60;16.70
10304;DHT22;5197;48.152;8.590;2023-04-09T01:01:41;4.60;16.80
10304;DHT22;5197;48.152;8.590;2023-04-09T01:04:47;4.60;16.80
10304;DHT22;5197;48.152;8.590;2023-04-09T01:10:23;4.40;15.50
10304;DHT22;5197;48.152;8.590;2023-04-09T01:15:30;4.20;16.80
10304;DHT22;5197;48.152;8.590;2023-04-09T01:18:05;4.10;17.50
10304;DHT22;5197;48.152;8.590;2023-04-09T01:20:48;4.00;17.10
10304;DHT22;5197;48.152;8.590;2023-04-09T01:23:19;4.00;17.70
10304;DHT22;5197;48.152;8.590;2023-04-09T01:26:04;3.90;17.60
10304;DHT22;5197;48.152;8.590;2023-04-09T01:28:35;4.00;17.70
10304;DHT22;5197;48.152;8.590;2023-04-09T01:31:08;3.90;17.70
10304;DHT22;5197;48.152;8.590;2023-04-09T01:33:38;3.90;17.70
10304;DHT22;5197;48.152;8.590;2023-04-09T01:36:05;3.90;17.60
10304;DHT22;5197;48.152;8.590;2023-04-09T01:38:34;3.90;17.70
10304;DHT22;5197;48.152;8.590;2023-04-09T01:41:03;3.80;17.60
10304;DHT22;5197;48.152;8.590;2023-04-09T01:43:31;3.80;17.60
10304;DHT22;5197;48.152;8.590;2023-04-09T01:46:00;3.70;17.50
10304;DHT22;5197;48.152;8.590;2023-04-09T01:48:29;3.70;17.50
10304;DHT22;5197;48.152;8.590;2023-04-09T01:50:59;3.70;17.60
10304;DHT22;5197;48.152;8.590;2023-04-09T01:53:27;3.60;17.40
10304;DHT22;5197;48.152;8.590;2023-04-09T01:55:54;3.60;18.50
10304;DHT22;5197;48.152;8.590;2023-04-09T01:58:24;3.60;17.40
10304;DHT22;5197;48.152;8.590;2023-04-09T02:00:58;3.60;18.50
10304;DHT22;5197;48.152;8.590;2023-04-09T02:03:30;3.60;17.40
10304;DHT22;5197;48.152;8.590;2023-04-09T02:08:30;3.50;17.40
10304;DHT22;5197;48.152;8.590;2023-04-09T02:11:03;3.50;17.40
10304;DHT22;5197;48.152;8.590;2023-04-09T02:13:31;3.50;17.40
10304;DHT22;5197;48.152;8.590;2023-04-09T02:16:00;3.50;17.40
10304;DHT22;5197;48.152;8.590;2023-04-09T02:18:28;3.50;17.40
10304;DHT22;5197;48.152;8.590;2023-04-09T02:20:56;3.50;17.40
10304;DHT22;5197;48.152;8.590;2023-04-09T02:23:25;3.40;17.40
10304;DHT22;5197;48.152;8.590;2023-04-09T02:25:53;3.60;17.40
10304;DHT22;5197;48.152;8.590;2023-04-09T02:28:19;3.50;17.40
10304;DHT22;5197;48.152;8.590;2023-04-09T02:30:46;3.50;17.40
10304;DHT22;5197;48.152;8.590;2023-04-09T02:33:13;3.50;17.50
10304;DHT22;5197;48.152;8.590;2023-04-09T02:35:40;3.40;17.30
10304;DHT22;5197;48.152;8.590;2023-04-09T02:38:08;3.40;17.40
10304;DHT22;5197;48.152;8.590;2023-04-09T02:40:40;3.40;17.30
10304;DHT22;5197;48.152;8.590;2023-04-09T02:43:07;3.30;17.30
10304;DHT22;5197;48.152;8.590;2023-04-09T02:45:34;3.30;17.30
10304;DHT22;5197;48.152;8.590;2023-04-09T02:48:01;3.30;17.40
10304;DHT22;5197;48.152;8.590;2023-04-09T02:50:28;3.20;17.40
10304;DHT22;5197;48.152;8.590;2023-04-09T02:52:55;3.20;17.40
10304;DHT22;5197;48.152;8.590;2023-04-09T02:55:22;3.20;17.30
10304;DHT22;5197;48.152;8.590;2023-04-09T02:57:48;3.10;17.20
10304;DHT22;5197;48.152;8.590;2023-04-09T03:00:15;3.10;17.30
10304;DHT22;5197;48.152;8.590;2023-04-09T03:02:42;3.00;17.20
10304;DHT22;5197;48.152;8.590;2023-04-09T03:05:09;3.00;17.20
10304;DHT22;5197;48.152;8.590;2023-04-09T03:07:36;2.90;17.10
10304;DHT22;5197;48.152;8.590;2023-04-09T03:10:03;2.90;17.10
10304;DHT22;5197;48.152;8.590;2023-04-09T03:12:30;2.90;17.10
10304;DHT22;5197;48.152;8.590;2023-04-09T03:14:56;2.80;17.00
10304;DHT22;5197;48.152;8.590;2023-04-09T03:17:23;2.80;17.00
10304;DHT22;5197;48.152;8.590;2023-04-09T03:19:53;2.70;16.90
10304;DHT22;5197;48.152;8.590;2023-04-09T03:22:20;2.70;17.10
10304;DHT22;5197;48.152;8.590;2023-04-09T03:24:47;2.60;16.90
10304;DHT22;5197;48.152;8.590;2023-04-09T03:27:14;2.60;16.90
10304;DHT22;5197;48.152;8.590;2023-04-09T03:29:41;2.50;16.90
10304;DHT22;5197;48.152;8.590;2023-04-09T03:32:08;2.50;16.80
10304;DHT22;5197;48.152;8.590;2023-04-09T03:34:34;2.40;16.80
10304;DHT22;5197;48.152;8.590;2023-04-09T03:37:01;2.30;16.80
10304;DHT22;5197;48.152;8.590;2023-04-09T03:39:28;2.20;17.30
10304;DHT22;5197;48.152;8.590;2023-04-09T03:41:57;2.20;17.70
10304;DHT22;5197;48.152;8.590;2023-04-09T03:44:24;2.10;17.70
10304;DHT22;5197;48.152;8.590;2023-04-09T03:46:51;2.10;17.90
10304;DHT22;5197;48.152;8.590;2023-04-09T03:49:18;2.10;18.30
10304;DHT22;5197;48.152;8.590;2023-04-09T03:51:45;2.00;18.30
10304;DHT22;5197;48.152;8.590;2023-04-09T03:54:12;2.00;18.10
10304;DHT22;5197;48.152;8.590;2023-04-09T03:56:38;2.00;18.00
10304;DHT22;5197;48.152;8.590;2023-04-09T03:59:05;1.90;18.00
10304;DHT22;5197;48.152;8.590;2023-04-09T04:01:32;1.90;18.10
10304;DHT22;5197;48.152;8.590;2023-04-09T04:04:00;1.80;18.30
10304;DHT22;5197;48.152;8.590;2023-04-09T04:06:27;1.70;18.60
10304;DHT22;5197;48.152;8.590;2023-04-09T04:08:54;1.80;18.70
10304;DHT22;5197;48.152;8.590;2023-04-09T04:11:21;1.80;18.50
10304;DHT22;5197;48.152;8.590;2023-04-09T04:13:47;1.80;18.30
10304;DHT22;5197;48.152;8.590;2023-04-09T04:16:14;1.70;18.50
10304;DHT22;5197;48.152;8.590;2023-04-09T04:18:41;1.70;18.50
10304;DHT22;5197;48.152;8.590;2023-04-09T04:21:12;1.70;18.60
10304;DHT22;5197;48.152;8.590;2023-04-09T04:23:40;1.70;18.80
10304;DHT22;5197;48.152;8.590;2023-04-09T04:26:08;1.60;18.60
10304;DHT22;5197;48.152;8.590;2023-04-09T04:28:39;1.50;18.50
10304;DHT22;5197;48.152;8.590;2023-04-09T04:31:08;1.50;18.90
10304;DHT22;5197;48.152;8.590;2023-04-09T04:33:36;1.50;19.20
10304;DHT22;5197;48.152;8.590;2023-04-09T04:36:08;1.40;19.10
10304;DHT22;5197;48.152;8.590;2023-04-09T04:38:36;1.40;19.10
10304;DHT22;5197;48.152;8.590;2023-04-09T04:41:03;1.40;19.20
10304;DHT22;5197;48.152;8.590;2023-04-09T04:43:30;1.40;19.20
10304;DHT22;5197;48.152;8.590;2023-04-09T04:45:58;1.30;19.20
10304;DHT22;5197;48.152;8.590;2023-04-09T04:48:25;1.30;19.50
10304;DHT22;5197;48.152;8.590;2023-04-09T04:50:54;1.20;19.60
10304;DHT22;5197;48.152;8.590;2023-04-09T04:53:22;1.20;20.60
10304;DHT22;5197;48.152;8.590;2023-04-09T04:55:49;1.20;19.80
10304;DHT22;5197;48.152;8.590;2023-04-09T04:58:16;1.20;19.90
10304;DHT22;5197;48.152;8.590;2023-04-09T05:00:43;1.20;19.80
10304;DHT22;5197;48.152;8.590;2023-04-09T05:03:12;1.20;19.80
10304;DHT22;5197;48.152;8.590;2023-04-09T05:05:39;1.20;20.10
10304;DHT22;5197;48.152;8.590;2023-04-09T05:08:06;1.20;20.40
10304;DHT22;5197;48.152;8.590;2023-04-09T05:10:32;1.20;20.40
10304;DHT22;5197;48.152;8.590;2023-04-09T05:12:59;1.20;20.40
10304;DHT22;5197;48.152;8.590;2023-04-09T05:15:26;1.20;20.60
10304;DHT22;5197;48.152;8.590;2023-04-09T05:17:53;1.20;20.90
10304;DHT22;5197;48.152;8.590;2023-04-09T05:20:20;1.30;21.20
10304;DHT22;5197;48.152;8.590;2023-04-09T05:22:46;1.30;21.40
10304;DHT22;5197;48.152;8.590;2023-04-09T05:25:13;1.30;21.50
10304;DHT22;5197;48.152;8.590;2023-04-09T05:27:42;1.30;21.40
10304;DHT22;5197;48.152;8.590;2023-04-09T05:30:09;1.30;21.50
10304;DHT22;5197;48.152;8.590;2023-04-09T05:32:36;1.30;21.80
10304;DHT22;5197;48.152;8.590;2023-04-09T05:35:04;1.20;21.60
10304;DHT22;5197;48.152;8.590;2023-04-09T05:37:31;1.20;21.50
10304;DHT22;5197;48.152;8.590;2023-04-09T05:39:57;1.20;22.20
10304;DHT22;5197;48.152;8.590;2023-04-09T05:42:24;1.10;22.70
10304;DHT22;5197;48.152;8.590;2023-04-09T05:44:51;1.20;23.10
10304;DHT22;5197;48.152;8.590;2023-04-09T05:47:18;1.20;23.40
10304;DHT22;5197;48.152;8.590;2023-04-09T05:49:45;1.30;23.60
10304;DHT22;5197;48.152;8.590;2023-04-09T05:52:13;1.30;23.60
10304;DHT22;5197;48.152;8.590;2023-04-09T05:54:40;1.30;24.10
10304;DHT22;5197;48.152;8.590;2023-04-09T05:57:06;1.40;24.50
10304;DHT22;5197;48.152;8.590;2023-04-09T05:59:33;1.50;25.70
10304;DHT22;5197;48.152;8.590;2023-04-09T06:02:00;1.50;24.90
10304;DHT22;5197;48.152;8.590;2023-04-09T06:04:27;1.50;24.90
10304;DHT22;5197;48.152;8.590;2023-04-09T06:06:54;1.50;25.10
10304;DHT22;5197;48.152;8.590;2023-04-09T06:09:21;1.50;25.20
10304;DHT22;5197;48.152;8.590;2023-04-09T06:11:48;1.50;25.20
10304;DHT22;5197;48.152;8.590;2023-04-09T06:14:15;1.60;25.40
10304;DHT22;5197;48.152;8.590;2023-04-09T06:16:43;1.60;25.50
10304;DHT22;5197;48.152;8.590;2023-04-09T06:19:10;1.70;26.00
10304;DHT22;5197;48.152;8.590;2023-04-09T06:21:37;1.90;26.60
10304;DHT22;5197;48.152;8.590;2023-04-09T06:24:06;1.90;27.10
10304;DHT22;5197;48.152;8.590;2023-04-09T06:26:33;2.10;27.70
10304;DHT22;5197;48.152;8.590;2023-04-09T06:28:59;2.30;28.80
10304;DHT22;5197;48.152;8.590;2023-04-09T06:31:26;2.70;30.50
10304;DHT22;5197;48.152;8.590;2023-04-09T06:33:53;3.00;33.10
10304;DHT22;5197;48.152;8.590;2023-04-09T06:36:21;3.40;34.90
10304;DHT22;5197;48.152;8.590;2023-04-09T06:38:47;3.90;37.40
10304;DHT22;5197;48.152;8.590;2023-04-09T06:41:15;4.40;40.30
10304;DHT22;5197;48.152;8.590;2023-04-09T06:43:42;4.80;40.30
10304;DHT22;5197;48.152;8.590;2023-04-09T06:46:09;5.20;39.40
10304;DHT22;5197;48.152;8.590;2023-04-09T06:48:36;5.60;39.60
10304;DHT22;5197;48.152;8.590;2023-04-09T06:51:05;6.00;39.70
10304;DHT22;5197;48.152;8.590;2023-04-09T06:53:32;6.40;40.00
10304;DHT22;5197;48.152;8.590;2023-04-09T06:55:58;6.70;38.20
10304;DHT22;5197;48.152;8.590;2023-04-09T06:58:25;7.00;36.20
10304;DHT22;5197;48.152;8.590;2023-04-09T07:00:52;7.30;36.40
10304;DHT22;5197;48.152;8.590;2023-04-09T07:03:19;7.70;35.30
10304;DHT22;5197;48.152;8.590;2023-04-09T07:05:46;8.10;34.10
10304;DHT22;5197;48.152;8.590;2023-04-09T07:08:14;8.40;32.80
10304;DHT22;5197;48.152;8.590;2023-04-09T07:10:41;8.60;28.60
10304;DHT22;5197;48.152;8.590;2023-04-09T07:13:07;8.90;27.60
10304;DHT22;5197;48.152;8.590;2023-04-09T07:15:34;9.20;24.30
10304;DHT22;5197;48.152;8.590;2023-04-09T07:18:01;9.50;21.20
10304;DHT22;5197;48.152;8.590;2023-04-09T07:20:28;9.80;19.30
10304;DHT22;5197;48.152;8.590;2023-04-09T07:22:55;10.10;17.10
10304;DHT22;5197;48.152;8.590;2023-04-09T07:25:22;10.30;13.20
10304;DHT22;5197;48.152;8.590;2023-04-09T07:27:49;10.10;12.70
10304;DHT22;5197;48.152;8.590;2023-04-09T07:30:16;10.20;12.40
10304;DHT22;5197;48.152;8.590;2023-04-09T07:32:43;10.40;11.40
10304;DHT22;5197;48.152;8.590;2023-04-09T07:35:10;10.70;9.90
10304;DHT22;5197;48.152;8.590;2023-04-09T07:37:37;10.90;8.10
10304;DHT22;5197;48.152;8.590;2023-04-09T07:40:04;11.10;6.60
10304;DHT22;5197;48.152;8.590;2023-04-09T07:42:31;11.20;6.10
10304;DHT22;5197;48.152;8.590;2023-04-09T07:44:58;11.20;4.90
10304;DHT22;5197;48.152;8.590;2023-04-09T07:47:26;11.40;4.50
10304;DHT22;5197;48.152;8.590;2023-04-09T07:49:54;11.80;1.00
10304;DHT22;5197;48.152;8.590;2023-04-09T07:52:20;12.00;1.00
10304;DHT22;5197;48.152;8.590;2023-04-09T07:54:47;12.10;1.00
10304;DHT22;5197;48.152;8.590;2023-04-09T07:57:14;12.20;1.00
10304;DHT22;5197;48.152;8.590;2023-04-09T07:59:41;12.20;1.00
10304;DHT22;5197;48.152;8.590;2023-04-09T08:02:08;12.10;1.00
10304;DHT22;5197;48.152;8.590;2023-04-09T08:04:38;12.00;1.00
10304;DHT22;5197;48.152;8.590;2023-04-09T08:07:05;11.50;1.00
10304;DHT22;5197;48.152;8.590;2023-04-09T08:09:31;11.30;1.00
10304;DHT22;5197;48.152;8.590;2023-04-09T08:11:59;11.30;1.00
10304;DHT22;5197;48.152;8.590;2023-04-09T08:14:26;11.50;1.00
10304;DHT22;5197;48.152;8.590;2023-04-09T08:16:53;11.70;1.00
10304;DHT22;5197;48.152;8.590;2023-04-09T08:19:21;11.90;1.00
10304;DHT22;5197;48.152;8.590;2023-04-09T08:21:47;12.00;1.00
10304;DHT22;5197;48.152;8.590;2023-04-09T08:24:15;13.40;1.00
10304;DHT22;5197;48.152;8.590;2023-04-09T08:26:42;12.40;1.00
10304;DHT22;5197;48.152;8.590;2023-04-09T08:29:11;12.60;1.00
10304;DHT22;5197;48.152;8.590;2023-04-09T08:31:38;12.80;1.00
10304;DHT22;5197;48.152;8.590;2023-04-09T08:34:05;12.70;1.00
10304;DHT22;5197;48.152;8.590;2023-04-09T08:36:33;12.50;1.00
10304;DHT22;5197;48.152;8.590;2023-04-09T08:39:01;12.00;1.00
10304;DHT22;5197;48.152;8.590;2023-04-09T08:41:28;11.30;1.00
10304;DHT22;5197;48.152;8.590;2023-04-09T08:43:57;10.70;1.00
10304;DHT22;5197;48.152;8.590;2023-04-09T08:46:25;10.20;1.00
10304;DHT22;5197;48.152;8.590;2023-04-09T08:48:53;10.10;1.00
10304;DHT22;5197;48.152;8.590;2023-04-09T08:51:22;10.10;1.00
10304;DHT22;5197;48.152;8.590;2023-04-09T08:54:00;10.50;1.00
10304;DHT22;5197;48.152;8.590;2023-04-09T08:56:30;10.30;1.00
10304;DHT22;5197;48.152;8.590;2023-04-09T08:58:57;10.20;1.00
10304;DHT22;5197;48.152;8.590;2023-04-09T09:01:26;10.00;1.00
10304;DHT22;5197;48.152;8.590;2023-04-09T09:04:02;9.70;1.00
10304;DHT22;5197;48.152;8.590;2023-04-09T09:06:32;9.60;1.00
10304;DHT22;5197;48.152;8.590;2023-04-09T09:09:14;9.40;1.00
10304;DHT22;5197;48.152;8.590;2023-04-09T09:11:47;9.30;1.00
10304;DHT22;5197;48.152;8.590;2023-04-09T09:14:17;9.30;1.00
10304;DHT22;5197;48.152;8.590;2023-04-09T09:17:03;9.20;1.00
10304;DHT22;5197;48.152;8.590;2023-04-09T09:19:32;9.20;1.00
10304;DHT22;5197;48.152;8.590;2023-04-09T09:22:04;9.00;1.00
10304;DHT22;5197;48.152;8.590;2023-04-09T09:24:31;9.60;1.00
10304;DHT22;5197;48.152;8.590;2023-04-09T09:27:00;8.90;1.00
10304;DHT22;5197;48.152;8.590;2023-04-09T09:29:27;8.80;1.00
10304;DHT22;5197;48.152;8.590;2023-04-09T09:31:54;8.80;1.00
10304;DHT22;5197;48.152;8.590;2023-04-09T09:34:23;9.00;1.00
10304;DHT22;5197;48.152;8.590;2023-04-09T09:36:50;9.00;1.00
10304;DHT22;5197;48.152;8.590;2023-04-09T09:39:17;9.30;1.00
10304;DHT22;5197;48.152;8.590;2023-04-09T09:41:45;9.40;1.00
10304;DHT22;5197;48.152;8.590;2023-04-09T09:44:30;9.30;1.00
10304;DHT22;5197;48.152;8.590;2023-04-09T09:46:58;9.50;1.00
10304;DHT22;5197;48.152;8.590;2023-04-09T09:49:25;9.60;1.00
10304;DHT22;5197;48.152;8.590;2023-04-09T09:51:52;9.70;1.00
10304;DHT22;5197;48.152;8.590;2023-04-09T09:54:24;9.90;1.00
10304;DHT22;5197;48.152;8.590;2023-04-09T09:56:54;10.00;1.00
10304;DHT22;5197;48.152;8.590;2023-04-09T09:59:25;10.00;1.00
10304;DHT22;5197;48.152;8.590;2023-04-09T10:01:58;10.00;1.00
10304;DHT22;5197;48.152;8.590;2023-04-09T10:04:28;10.10;1.00
10304;DHT22;5197;48.152;8.590;2023-04-09T10:06:55;10.10;1.00
10304;DHT22;5197;48.152;8.590;2023-04-09T10:09:25;10.20;1.00
10304;DHT22;5197;48.152;8.590;2023-04-09T10:11:54;10.20;1.00
10304;DHT22;5197;48.152;8.590;2023-04-09T10:14:21;10.20;1.00
10304;DHT22;5197;48.152;8.590;2023-04-09T10:16:48;10.10;1.00
10304;DHT22;5197;48.152;8.590;2023-04-09T10:19:17;10.00;1.00
10304;DHT22;5197;48.152;8.590;2023-04-09T10:21:58;10.20;1.00
10304;DHT22;5197;48.152;8.590;2023-04-09T10:24:30;10.30;1.00
10304;DHT22;5197;48.152;8.590;2023-04-09T10:27:10;10.40;1.00
10304;DHT22;5197;48.152;8.590;2023-04-09T10:29:44;10.60;1.00
10304;DHT22;5197;48.152;8.590;2023-04-09T10:32:16;10.70;1.00
10304;DHT22;5197;48.152;8.590;2023-04-09T10:34:46;10.60;1.00
10304;DHT22;5197;48.152;8.590;2023-04-09T10:37:20;10.60;1.00
10304;DHT22;5197;48.152;8.590;2023-04-09T10:39:48;10.60;1.00
10304;DHT22;5197;48.152;8.590;2023-04-09T10:42:25;10.70;1.00
10304;DHT22;5197;48.152;8.590;2023-04-09T10:45:10;10.70;1.00
10304;DHT22;5197;48.152;8.590;2023-04-09T10:47:39;10.70;1.00
10304;DHT22;5197;48.152;8.590;2023-04-09T10:50:33;10.80;1.00
10304;DHT22;5197;48.152;8.590;2023-04-09T10:53:02;10.90;1.00
10304;DHT22;5197;48.152;8.590;2023-04-09T10:55:40;11.00;1.00
10304;DHT22;5197;48.152;8.590;2023-04-09T10:58:09;11.10;1.00
10304;DHT22;5197;48.152;8.590;2023-04-09T11:00:41;11.10;1.00
10304;DHT22;5197;48.152;8.590;2023-04-09T11:03:26;11.10;1.00
10304;DHT22;5197;48.152;8.590;2023-04-09T11:06:04;11.30;1.00
10304;DHT22;5197;48.152;8.590;2023-04-09T11:08:33;11.30;1.00
10304;DHT22;5197;48.152;8.590;2023-04-09T11:11:01;11.20;1.00
10304;DHT22;5197;48.152;8.590;2023-04-09T11:13:29;11.20;1.00
10304;DHT22;5197;48.152;8.590;2023-04-09T11:15:57;11.10;1.00
10304;DHT22;5197;48.152;8.590;2023-04-09T11:18:28;11.10;1.00
10304;DHT22;5197;48.152;8.590;2023-04-09T11:20:56;11.10;1.00
10304;DHT22;5197;48.152;8.590;2023-04-09T11:23:24;10.90;1.00
10304;DHT22;5197;48.152;8.590;2023-04-09T11:25:52;10.80;1.00
10304;DHT22;5197;48.152;8.590;2023-04-09T11:28:19;10.70;1.00
10304;DHT22;5197;48.152;8.590;2023-04-09T11:30:48;11.40;1.00
10304;DHT22;5197;48.152;8.590;2023-04-09T11:33:15;10.60;1.00
10304;DHT22;5197;48.152;8.590;2023-04-09T11:35:46;10.50;1.00
10304;DHT22;5197;48.152;8.590;2023-04-09T11:38:13;10.50;1.00
10304;DHT22;5197;48.152;8.590;2023-04-09T11:40:42;10.50;1.00
10304;DHT22;5197;48.152;8.590;2023-04-09T11:43:15;10.60;1.00
10304;DHT22;5197;48.152;8.590;2023-04-09T11:45:44;10.70;1.00
10304;DHT22;5197;48.152;8.590;2023-04-09T11:48:13;10.70;1.00
10304;DHT22;5197;48.152;8.590;2023-04-09T11:50:40;10.70;1.00
10304;DHT22;5197;48.152;8.590;2023-04-09T11:53:17;10.80;1.00
10304;DHT22;5197;48.152;8.590;2023-04-09T11:55:49;10.90;1.00
10304;DHT22;5197;48.152;8.590;2023-04-09T11:58:17;10.90;1.00
10304;DHT22;5197;48.152;8.590;2023-04-09T12:00:44;11.00;1.00
10304;DHT22;5197;48.152;8.590;2023-04-09T12:03:11;11.00;1.00
10304;DHT22;5197;48.152;8.590;2023-04-09T12:05:44;11.00;1.00
10304;DHT22;5197;48.152;8.590;2023-04-09T12:08:21;11.10;1.00
10304;DHT22;5197;48.152;8.590;2023-04-09T12:10:49;11.10;1.00
10304;DHT22;5197;48.152;8.590;2023-04-09T12:13:19;11.10;1.00
10304;DHT22;5197;48.152;8.590;2023-04-09T12:15:48;11.20;1.00
10304;DHT22;5197;48.152;8.590;2023-04-09T12:18:15;11.20;1.00
10304;DHT22;5197;48.152;8.590;2023-04-09T12:20:42;11.10;1.00
10304;DHT22;5197;48.152;8.590;2023-04-09T12:23:11;11.00;1.00
10304;DHT22;5197;48.152;8.590;2023-04-09T12:25:40;10.80;1.00
10304;DHT22;5197;48.152;8.590;2023-04-09T12:28:10;10.90;1.00
10304;DHT22;5197;48.152;8.590;2023-04-09T12:30:37;11.20;1.00
10304;DHT22;5197;48.152;8.590;2023-04-09T12:33:04;11.40;1.00
10304;DHT22;5197;48.152;8.590;2023-04-09T12:35:34;11.40;1.00
10304;DHT22;5197;48.152;8.590;2023-04-09T12:38:01;11.60;1.00
10304;DHT22;5197;48.152;8.590;2023-04-09T12:40:29;11.50;1.00
10304;DHT22;5197;48.152;8.590;2023-04-09T12:42:56;11.60;1.00
10304;DHT22;5197;48.152;8.590;2023-04-09T12:45:22;11.70;1.00
10304;DHT22;5197;48.152;8.590;2023-04-09T12:47:49;11.70;1.00
10304;DHT22;5197;48.152;8.590;2023-04-09T12:50:16;11.80;1.00
10304;DHT22;5197;48.152;8.590;2023-04-09T12:52:44;11.90;1.00
10304;DHT22;5197;48.152;8.590;2023-04-09T12:55:12;12.40;1.00
10304;DHT22;5197;48.152;8.590;2023-04-09T12:57:42;11.80;1.00
10304;DHT22;5197;48.152;8.590;2023-04-09T13:00:10;12.20;1.00
10304;DHT22;5197;48.152;8.590;2023-04-09T13:02:37;11.80;1.00
10304;DHT22;5197;48.152;8.590;2023-04-09T13:05:04;11.90;1.00
10304;DHT22;5197;48.152;8.590;2023-04-09T13:07:31;12.00;1.00
10304;DHT22;5197;48.152;8.590;2023-04-09T13:09:58;12.00;1.00
10304;DHT22;5197;48.152;8.590;2023-04-09T13:12:24;11.90;1.00
10304;DHT22;5197;48.152;8.590;2023-04-09T13:14:53;11.90;1.00
10304;DHT22;5197;48.152;8.590;2023-04-09T13:17:20;11.90;1.00
10304;DHT22;5197;48.152;8.590;2023-04-09T13:19:49;11.90;1.00
10304;DHT22;5197;48.152;8.590;2023-04-09T13:22:17;11.90;1.00
10304;DHT22;5197;48.152;8.590;2023-04-09T13:24:44;12.00;1.00
10304;DHT22;5197;48.152;8.590;2023-04-09T13:27:11;12.30;1.00
10304;DHT22;5197;48.152;8.590;2023-04-09T13:29:37;12.00;1.00
10304;DHT22;5197;48.152;8.590;2023-04-09T13:32:05;12.00;1.00
10304;DHT22;5197;48.152;8.590;2023-04-09T13:34:38;12.20;1.00
10304;DHT22;5197;48.152;8.590;2023-04-09T13:37:05;12.30;1.00
10304;DHT22;5197;48.152;8.590;2023-04-09T13:39:32;12.50;1.00
10304;DHT22;5197;48.152;8.590;2023-04-09T13:42:00;12.70;1.00
10304;DHT22;5197;48.152;8.590;2023-04-09T13:44:35;12.70;1.00
10304;DHT22;5197;48.152;8.590;2023-04-09T13:47:02;12.60;1.00
10304;DHT22;5197;48.152;8.590;2023-04-09T13:49:29;12.50;1.00
10304;DHT22;5197;48.152;8.590;2023-04-09T13:51:56;13.00;1.00
10304;DHT22;5197;48.152;8.590;2023-04-09T13:54:23;12.40;1.00
10304;DHT22;5197;48.152;8.590;2023-04-09T13:56:50;12.40;1.00
10304;DHT22;5197;48.152;8.590;2023-04-09T13:59:17;12.50;1.00
10304;DHT22;5197;48.152;8.590;2023-04-09T14:01:44;12.60;1.00
10304;DHT22;5197;48.152;8.590;2023-04-09T14:04:11;12.70;1.00
10304;DHT22;5197;48.152;8.590;2023-04-09T14:06:39;12.70;1.00
10304;DHT22;5197;48.152;8.590;2023-04-09T14:09:08;12.60;1.00
10304;DHT22;5197;48.152;8.590;2023-04-09T14:11:35;12.60;1.00
10304;DHT22;5197;48.152;8.590;2023-04-09T14:14:03;12.70;1.00
10304;DHT22;5197;48.152;8.590;2023-04-09T14:16:30;12.90;1.00
10304;DHT22;5197;48.152;8.590;2023-04-09T14:18:57;13.00;1.00
10304;DHT22;5197;48.152;8.590;2023-04-09T14:21:24;12.90;1.00
10304;DHT22;5197;48.152;8.590;2023-04-09T14:23:52;13.00;1.00
10304;DHT22;5197;48.152;8.590;2023-04-09T14:26:19;13.00;1.00
10304;DHT22;5197;48.152;8.590;2023-04-09T14:28:50;13.10;1.00
10304;DHT22;5197;48.152;8.590;2023-04-09T14:31:17;13.30;1.00
10304;DHT22;5197;48.152;8.590;2023-04-09T14:33:47;13.50;1.00
10304;DHT22;5197;48.152;8.590;2023-04-09T14:36:14;13.80;1.00
10304;DHT22;5197;48.152;8.590;2023-04-09T14:38:42;15.10;1.00
10304;DHT22;5197;48.152;8.590;2023-04-09T14:41:09;14.10;1.00
10304;DHT22;5197;48.152;8.590;2023-04-09T14:43:36;14.20;1.00
10304;DHT22;5197;48.152;8.590;2023-04-09T14:46:03;14.30;1.00
10304;DHT22;5197;48.152;8.590;2023-04-09T14:48:32;14.10;1.00
10304;DHT22;5197;48.152;8.590;2023-04-09T14:50:58;13.80;1.00
10304;DHT22;5197;48.152;8.590;2023-04-09T14:53:25;13.70;1.00
10304;DHT22;5197;48.152;8.590;2023-04-09T14:55:52;13.50;1.00
10304;DHT22;5197;48.152;8.590;2023-04-09T14:58:19;13.40;1.00
10304;DHT22;5197;48.152;8.590;2023-04-09T15:00:47;13.30;1.00
10304;DHT22;5197;48.152;8.590;2023-04-09T15:03:14;13.20;1.00
10304;DHT22;5197;48.152;8.590;2023-04-09T15:05:45;13.20;1.00
10304;DHT22;5197;48.152;8.590;2023-04-09T15:08:13;13.00;1.00
10304;DHT22;5197;48.152;8.590;2023-04-09T15:10:40;12.90;1.00
10304;DHT22;5197;48.152;8.590;2023-04-09T15:13:07;12.80;1.00
10304;DHT22;5197;48.152;8.590;2023-04-09T15:15:34;12.90;1.00
10304;DHT22;5197;48.152;8.590;2023-04-09T15:18:01;13.00;1.00
10304;DHT22;5197;48.152;8.590;2023-04-09T15:20:36;13.10;1.00
10304;DHT22;5197;48.152;8.590;2023-04-09T15:23:02;13.10;1.00
10304;DHT22;5197;48.152;8.590;2023-04-09T15:25:29;13.20;1.00
10304;DHT22;5197;48.152;8.590;2023-04-09T15:27:57;13.10;1.00
10304;DHT22;5197;48.152;8.590;2023-04-09T15:30:23;13.20;1.00
10304;DHT22;5197;48.152;8.590;2023-04-09T15:32:50;12.80;1.00
10304;DHT22;5197;48.152;8.590;2023-04-09T15:35:18;12.70;1.00
10304;DHT22;5197;48.152;8.590;2023-04-09T15:37:50;12.50;1.00
10304;DHT22;5197;48.152;8.590;2023-04-09T15:40:17;12.50;1.00
10304;DHT22;5197;48.152;8.590;2023-04-09T15:42:45;12.40;1.00
10304;DHT22;5197;48.152;8.590;2023-04-09T15:45:13;12.60;1.00
10304;DHT22;5197;48.152;8.590;2023-04-09T15:47:45;12.40;1.00
10304;DHT22;5197;48.152;8.590;2023-04-09T15:50:12;12.50;1.00
10304;DHT22;5197;48.152;8.590;2023-04-09T15:52:39;12.60;1.00
10304;DHT22;5197;48.152;8.590;2023-04-09T15:55:07;12.70;1.00
10304;DHT22;5197;48.152;8.590;2023-04-09T15:57:33;12.70;1.00
10304;DHT22;5197;48.152;8.590;2023-04-09T16:00:01;12.70;1.00
10304;DHT22;5197;48.152;8.590;2023-04-09T16:02:28;12.80;1.00
10304;DHT22;5197;48.152;8.590;2023-04-09T16:04:54;12.90;1.00
10304;DHT22;5197;48.152;8.590;2023-04-09T16:07:22;12.90;1.00
10304;DHT22;5197;48.152;8.590;2023-04-09T16:09:48;13.10;1.00
10304;DHT22;5197;48.152;8.590;2023-04-09T16:12:15;13.00;1.00
10304;DHT22;5197;48.152;8.590;2023-04-09T16:14:42;13.00;1.00
10304;DHT22;5197;48.152;8.590;2023-04-09T16:17:09;13.10;1.00